Time;durP1;ratioP1;P1;durP2;ratioP2;P2;SDS_P1;SDS_P2;PMS_P1;PMS_P2;Temp;Humidity;BMP_temperature;BMP_pressure;BME280_temperature;BME280_humidity;BME280_pressure;Samples;Min_cycle;Max_cycle;Signal;HPM_P1;HPM_P2
2022/08/26 00:01:15;;;;;;;;;;;;;;;;;;5078211;28;19912;-85
2022/08/26 00:04:01;;;;;;;;;;;;;;;;;;5095607;27;20252;-84
2022/08/26 00:06:48;;;;;;;;;;;;;;;;;;5077152;28;19932;-83
2022/08/26 00:09:34;;;;;;;;;;;;;;;;;;5073666;28;19919;-84
2022/08/26 00:12:21;;;;;;;;;;;;;;;;;;5080350;28;19919;-84
2022/08/26 00:15:07;;;;;;;;;;;;;;;;;;5103985;28;19939;-84
2022/08/26 00:17:54;;;;;;;;;;;;;;;;;;5076044;28;19932;-81
2022/08/26 00:20:40;;;;;;;;;;;;;;;;;;5076688;28;19912;-82
2022/08/26 00:23:27;;;;;;;;;;;;;;;;;;5103398;28;19915;-82
2022/08/26 00:26:13;;;;;;;;;;;;;;;;;;5075098;28;19919;-82
2022/08/26 00:28:59;;;;;;;;;;;;;;;;;;5077804;28;20311;-82
2022/08/26 00:31:46;;;;;;;;;;;;;;;;;;5092777;28;19908;-86
2022/08/26 00:34:32;;;;;;;;;;;;;;;;;;5076510;28;19912;-86
2022/08/26 00:37:19;;;;;;;;;;;;;;;;;;5108687;28;19919;-86
2022/08/26 00:40:05;;;;;;;;;;;;;;;;;;5081726;28;19931;-86
2022/08/26 00:42:52;;;;;;;;;;;;;;;;;;5086678;28;19919;-86
2022/08/26 00:45:38;;;;;;;;;;;;;;;;;;5102877;28;19908;-86
2022/08/26 00:48:25;;;;;;;;;;;;;;;;;;5079723;28;20294;-83
2022/08/26 00:51:11;;;;;;;;;;;;;;;;;;5079367;28;19912;-80
2022/08/26 00:53:58;;;;;;;;;;;;;;;;;;5073732;28;19912;-80
2022/08/26 00:56:44;;;;;;;;;;;;;;;;;;5093343;28;19920;-80
2022/08/26 00:59:31;;;;;;;;;;;;;;;;;;5103772;28;19908;-81
2022/08/26 01:02:17;;;;;;;;;;;;;;;;;;5077299;28;19918;-81
2022/08/26 01:05:04;;;;;;;;;;;;;;;;;;5069011;28;19908;-81
2022/08/26 01:07:50;;;;;;;;;;;;;;;;;;5106087;28;19949;-81
2022/08/26 01:10:37;;;;;;;;;;;;;;;;;;5077588;28;20496;-81
2022/08/26 01:13:23;;;;;;;;;;;;;;;;;;5075709;28;19912;-81
2022/08/26 01:16:10;;;;;;;;;;;;;;;;;;5074561;28;20038;-81
2022/08/26 01:18:57;;;;;;;;;;;;;;;;;;5073019;28;19908;-81
2022/08/26 01:21:43;;;;;;;;;;;;;;;;;;5071674;28;19918;-81
2022/08/26 01:24:30;;;;;;;;;;;;;;;;;;5075755;28;20335;-81
2022/08/26 01:27:16;;;;;;;;;;;;;;;;;;5077425;28;19908;-81
2022/08/26 01:30:03;;;;;;;;;;;;;;;;;;5088038;28;19908;-81
2022/08/26 01:32:49;;;;;;;;;;;;;;;;;;5091052;28;19912;-81
2022/08/26 01:35:36;;;;;;;;;;;;;;;;;;5103437;28;19919;-81
2022/08/26 01:38:23;;;;;;;;;;;;;;;;;;5077856;28;19924;-81
2022/08/26 01:41:09;;;;;;;;;;;;;;;;;;5076677;28;19908;-81
2022/08/26 01:43:56;;;;;;;;;;;;;;;;;;5092439;28;19918;-81
2022/08/26 01:46:42;;;;;;;;;;;;;;;;;;5076095;28;19908;-81
2022/08/26 01:49:29;;;;;;;;;;;;;;;;;;5089234;28;19914;-81
2022/08/26 01:52:15;;;;;;;;;;;;;;;;;;5102137;28;20299;-80
2022/08/26 01:55:03;;;;;;;;;;;;;;;;;;5088145;28;19908;-82
2022/08/26 01:57:49;;;;;;;;;;;;;;;;;;5078370;28;19920;-82
2022/08/26 02:00:36;;;;;;;;;;;;;;;;;;5067640;28;19919;-82
2022/08/26 02:03:22;;;;;;;;;;;;;;;;;;5074474;28;20229;-82
2022/08/26 02:06:09;;;;;;;;;;;;;;;;;;5076311;28;19915;-82
2022/08/26 02:08:55;;;;;;;;;;;;;;;;;;5102765;28;19912;-81
2022/08/26 02:11:43;;;;;;;;;;;;;;;;;;5089788;28;19911;-83
2022/08/26 02:14:30;;;;;;;;;;;;;;;;;;5102709;28;19928;-83
2022/08/26 02:17:16;;;;;;;;;;;;;;;;;;5101567;28;19924;-82
2022/08/26 02:20:02;;;;;;;;;;;;;;;;;;5075177;28;19912;-83
2022/08/26 02:22:49;;;;;;;;;;;;;;;;;;5088379;28;19918;-81
2022/08/26 02:25:35;;;;;;;;;;;;;;;;;;5075413;28;19912;-82
2022/08/26 02:28:22;;;;;;;;;;;;;;;;;;5074571;28;19913;-82
2022/08/26 02:31:08;;;;;;;;;;;;;;;;;;5077390;28;19908;-83
2022/08/26 02:33:55;;;;;;;;;;;;;;;;;;5086895;28;19916;-81
2022/08/26 02:36:41;;;;;;;;;;;;;;;;;;5080983;28;19922;-81
2022/08/26 02:39:29;;;;;;;;;;;;;;;;;;5084399;28;19912;-82
2022/08/26 02:42:16;;;;;;;;;;;;;;;;;;5078751;28;19919;-82
2022/08/26 02:45:02;;;;;;;;;;;;;;;;;;5079795;28;19923;-81
2022/08/26 02:47:49;;;;;;;;;;;;;;;;;;5078876;28;20427;-81
2022/08/26 02:50:35;;;;;;;;;;;;;;;;;;5092069;28;19923;-81
2022/08/26 02:53:22;;;;;;;;;;;;;;;;;;5087570;28;19915;-84
2022/08/26 02:56:08;;;;;;;;;;;;;;;;;;5080504;28;19923;-84
2022/08/26 02:58:55;;;;;;;;;;;;;;;;;;5076360;28;19919;-84
2022/08/26 03:01:43;;;;;;;;;;;;;;;;;;5081831;28;19908;-82
2022/08/26 03:04:29;;;;;;;;;;;;;;;;;;5078138;28;19912;-83
2022/08/26 03:07:16;;;;;;;;;;;;;;;;;;5075446;28;19923;-83
2022/08/26 03:10:02;;;;;;;;;;;;;;;;;;5080468;28;20003;-81
2022/08/26 03:12:49;;;;;;;;;;;;;;;;;;5074031;28;19909;-81
2022/08/26 03:15:35;;;;;;;;;;;;;;;;;;5096882;28;19924;-81
2022/08/26 03:18:22;;;;;;;;;;;;;;;;;;5090506;28;19916;-81
2022/08/26 03:21:09;;;;;;;;;;;;;;;;;;5083618;28;19915;-80
2022/08/26 03:23:56;;;;;;;;;;;;;;;;;;5065519;28;20382;-81
2022/08/26 03:26:42;;;;;;;;;;;;;;;;;;5076651;28;19912;-80
2022/08/26 03:32:34;;;;;;;;;;;;;;;;;;5095024;28;20386;-81
2022/08/26 03:35:20;;;;;;;;;;;;;;;;;;5078323;28;19916;-82
2022/08/26 03:38:07;;;;;;;;;;;;;;;;;;5075305;28;19928;-81
2022/08/26 03:40:55;;;;;;;;;;;;;;;;;;5092172;28;19914;-82
2022/08/26 03:43:41;;;;;;;;;;;;;;;;;;5089456;28;19916;-82
2022/08/26 03:46:28;;;;;;;;;;;;;;;;;;5095636;28;19916;-81
2022/08/26 03:49:14;;;;;;;;;;;;;;;;;;5071949;28;19923;-79
2022/08/26 03:52:00;;;;;;;;;;;;;;;;;;5076041;28;19923;-80
2022/08/26 03:54:47;;;;;;;;;;;;;;;;;;5075187;28;19931;-78
2022/08/26 03:57:33;;;;;;;;;;;;;;;;;;5078569;28;19924;-79
2022/08/26 04:00:20;;;;;;;;;;;;;;;;;;5081324;28;19908;-80
2022/08/26 04:03:06;;;;;;;;;;;;;;;;;;5099556;28;19945;-79
2022/08/26 04:05:53;;;;;;;;;;;;;;;;;;5100813;28;19932;-79
2022/08/26 04:08:39;;;;;;;;;;;;;;;;;;5076818;28;19915;-78
2022/08/26 04:11:30;;;;;;;;;;;;;;;;;;5071430;28;19920;-84
2022/08/26 04:14:17;;;;;;;;;;;;;;;;;;5073546;28;19926;-82
2022/08/26 04:17:04;;;;;;;;;;;;;;;;;;5074354;28;19920;-84
2022/08/26 04:19:50;;;;;;;;;;;;;;;;;;5101022;28;19919;-84
2022/08/26 04:22:37;;;;;;;;;;;;;;;;;;5103909;28;19912;-84
2022/08/26 04:25:23;;;;;;;;;;;;;;;;;;5103873;28;19919;-85
2022/08/26 04:28:09;;;;;;;;;;;;;;;;;;5111446;27;19916;-85
2022/08/26 04:30:56;;;;;;;;;;;;;;;;;;5079286;28;20315;-84
2022/08/26 04:33:42;;;;;;;;;;;;;;;;;;5073444;28;19919;-85
2022/08/26 04:36:29;;;;;;;;;;;;;;;;;;5096720;28;19922;-85
2022/08/26 04:39:15;;;;;;;;;;;;;;;;;;5094947;27;19923;-88
2022/08/26 04:42:02;;;;;;;;;;;;;;;;;;5102447;28;20148;-79
2022/08/26 04:44:52;;;;;;;;;;;;;;;;;;5077069;28;19923;-87
2022/08/26 04:47:38;;;;;;;;;;;;;;;;;;5070736;28;19919;-85
2022/08/26 04:50:25;;;;;;;;;;;;;;;;;;5076208;28;19915;-86
2022/08/26 04:53:12;;;;;;;;;;;;;;;;;;5074446;28;19918;-85
2022/08/26 04:55:58;;;;;;;;;;;;;;;;;;5096745;28;20570;-86
2022/08/26 04:58:45;;;;;;;;;;;;;;;;;;5101266;27;19916;-86
2022/08/26 05:01:31;;;;;;;;;;;;;;;;;;5068473;28;19912;-84
2022/08/26 05:04:18;;;;;;;;;;;;;;;;;;5075856;28;19918;-83
2022/08/26 05:07:05;;;;;;;;;;;;;;;;;;5093881;28;20311;-84
2022/08/26 05:09:51;;;;;;;;;;;;;;;;;;5074247;28;19908;-85
2022/08/26 05:12:38;;;;;;;;;;;;;;;;;;5085274;28;19912;-87
2022/08/26 05:15:24;;;;;;;;;;;;;;;;;;5059826;28;19925;-85
2022/08/26 05:18:11;;;;;;;;;;;;;;;;;;5052558;28;19927;-85
2022/08/26 05:20:58;;;;;;;;;;;;;;;;;;5053758;28;20390;-84
2022/08/26 05:23:45;;;;;;;;;;;;;;;;;;5058311;28;19916;-81
2022/08/26 05:26:31;;;;;;;;;;;;;;;;;;5054316;28;19912;-81
2022/08/26 05:29:18;;;;;;;;;;;;;;;;;;5067884;28;19908;-81
2022/08/26 05:32:05;;;;;;;;;;;;;;;;;;5059034;28;19916;-82
2022/08/26 05:34:51;;;;;;;;;;;;;;;;;;5070137;28;19919;-81
2022/08/26 05:37:38;;;;;;;;;;;;;;;;;;5061800;28;20364;-81
2022/08/26 05:40:24;;;;;;;;;;;;;;;;;;5059127;28;19920;-82
2022/08/26 05:43:12;;;;;;;;;;;;;;;;;;5081144;28;19915;-82
2022/08/26 05:45:58;;;;;;;;;;;;;;;;;;5058354;28;20254;-81
2022/08/26 05:48:45;;;;;;;;;;;;;;;;;;5066521;28;19912;-81
2022/08/26 05:51:32;;;;;;;;;;;;;;;;;;5065552;28;19919;-80
2022/08/26 05:54:18;;;;;;;;;;;;;;;;;;5064815;28;19919;-81
2022/08/26 05:57:05;;;;;;;;;;;;;;;;;;5065163;28;19928;-80
2022/08/26 05:59:51;;;;;;;;;;;;;;;;;;5043775;28;20431;-81
2022/08/26 06:02:38;;;;;;;;;;;;;;;;;;5052107;28;19942;-81
2022/08/26 06:05:25;;;;;;;;;;;;;;;;;;5062285;28;19908;-81
2022/08/26 06:08:15;;;;;;;;;;;;;;;;;;5054527;28;19913;-82
2022/08/26 06:11:01;;;;;;;;;;;;;;;;;;5051095;28;19909;-81
2022/08/26 06:13:48;;;;;;;;;;;;;;;;;;5050083;28;19986;-81
2022/08/26 06:16:37;;;;;;;;;;;;;;;;;;5067945;28;20108;-81
2022/08/26 06:19:23;;;;;;;;;;;;;;;;;;5064453;28;19908;-81
2022/08/26 06:25:36;;;;;;;;;;;;;;;;;;5088987;28;19912;-84
2022/08/26 06:28:23;;;;;;;;;;;;;;;;;;5087989;28;19916;-85
2022/08/26 06:31:09;;;;;;;;;;;;;;;;;;5080947;28;19916;-84
2022/08/26 06:33:57;;;;;;;;;;;;;;;;;;5099609;28;19923;-84
2022/08/26 06:36:43;;;;;;;;;;;;;;;;;;5083833;28;19926;-83
2022/08/26 06:39:30;;;;;;;;;;;;;;;;;;5065211;28;19923;-83
2022/08/26 06:42:16;;;;;;;;;;;;;;;;;;5084690;28;19916;-82
2022/08/26 06:45:04;;;;;;;;;;;;;;;;;;5073861;28;19916;-82
2022/08/26 06:47:51;;;;;;;;;;;;;;;;;;5075692;28;19918;-83
2022/08/26 06:50:38;;;;;;;;;;;;;;;;;;5084876;28;19939;-83
2022/08/26 06:53:26;;;;;;;;;;;;;;;;;;5079092;28;19915;-83
2022/08/26 06:56:13;;;;;;;;;;;;;;;;;;5075842;28;19928;-82
2022/08/26 06:58:59;;;;;;;;;;;;;;;;;;5086743;28;19919;-83
2022/08/26 07:01:46;;;;;;;;;;;;;;;;;;5083745;28;20282;-83
2022/08/26 07:04:34;;;;;;;;;;;;;;;;;;5073662;28;19912;-83
2022/08/26 07:07:21;;;;;;;;;;;;;;;;;;5071329;28;19919;-83
2022/08/26 07:10:07;;;;;;;;;;;;;;;;;;5104909;28;19943;-83
2022/08/26 07:12:54;;;;;;;;;;;;;;;;;;5098542;28;19930;-83
2022/08/26 07:15:40;;;;;;;;;;;;;;;;;;5102517;28;19939;-77
2022/08/26 07:18:26;;;;;;;;;;;;;;;;;;5080484;28;19927;-79
2022/08/26 07:21:13;;;;;;;;;;;;;;;;;;5074055;28;20271;-78
2022/08/26 07:24:01;;;;;;;;;;;;;;;;;;5087806;28;19912;-77
2022/08/26 07:26:47;;;;;;;;;;;;;;;;;;5107412;27;20359;-78
2022/08/26 07:29:34;;;;;;;;;;;;;;;;;;5090618;28;19912;-77
2022/08/26 07:32:20;;;;;;;;;;;;;;;;;;5093554;28;19941;-78
2022/08/26 07:35:07;;;;;;;;;;;;;;;;;;5088467;28;19919;-79
2022/08/26 07:37:53;;;;;;;;;;;;;;;;;;5067848;28;20411;-77
2022/08/26 07:40:42;;;;;;;;;;;;;;;;;;5089584;28;19908;-78
2022/08/26 07:43:29;;;;;;;;;;;;;;;;;;5076560;28;19912;-78
2022/08/26 07:46:18;;;;;;;;;;;;;;;;;;5078565;28;19912;-78
2022/08/26 07:49:05;;;;;;;;;;;;;;;;;;5066357;28;19912;-78
2022/08/26 07:51:51;;;;;;;;;;;;;;;;;;5090648;28;19915;-78
2022/08/26 07:54:39;;;;;;;;;;;;;;;;;;5089081;28;19922;-80
2022/08/26 07:57:25;;;;;;;;;;;;;;;;;;5066846;28;19916;-78
2022/08/26 08:00:12;;;;;;;;;;;;;;;;;;5091897;28;20279;-79
2022/08/26 08:02:58;;;;;;;;;;;;;;;;;;5094576;27;19908;-78
2022/08/26 08:05:45;;;;;;;;;;;;;;;;;;5090092;28;19914;-78
2022/08/26 08:08:34;;;;;;;;;;;;;;;;;;5084510;28;19919;-79
2022/08/26 08:11:21;;;;;;;;;;;;;;;;;;5092831;28;19908;-77
2022/08/26 08:14:07;;;;;;;;;;;;;;;;;;5088781;28;19927;-78
2022/08/26 08:16:53;;;;;;;;;;;;;;;;;;5091970;28;19948;-77
2022/08/26 08:19:40;;;;;;;;;;;;;;;;;;5091045;28;19916;-79
2022/08/26 08:22:27;;;;;;;;;;;;;;;;;;5077758;28;19916;-78
2022/08/26 08:25:16;;;;;;;;;;;;;;;;;;5089152;28;19923;-77
2022/08/26 08:28:02;;;;;;;;;;;;;;;;;;5099976;28;19913;-78
2022/08/26 08:30:52;;;;;;;;;;;;;;;;;;5083886;28;19908;-78
2022/08/26 08:33:38;;;;;;;;;;;;;;;;;;5094794;28;19918;-79
2022/08/26 08:36:24;;;;;;;;;;;;;;;;;;5099095;27;19924;-78
2022/08/26 08:39:11;;;;;;;;;;;;;;;;;;5108740;27;19912;-79
2022/08/26 08:41:57;;;;;;;;;;;;;;;;;;5103311;27;19928;-78
2022/08/26 08:44:44;;;;;;;;;;;;;;;;;;5097614;27;19916;-78
2022/08/26 08:47:32;;;;;;;;;;;;;;;;;;5083206;28;19912;-78
2022/08/26 08:50:19;;;;;;;;;;;;;;;;;;5092338;28;19912;-78
2022/08/26 08:53:05;;;;;;;;;;;;;;;;;;5092495;28;19912;-77
2022/08/26 08:55:52;;;;;;;;;;;;;;;;;;5081890;28;19916;-78
2022/08/26 08:58:39;;;;;;;;;;;;;;;;;;5082550;28;19916;-78
2022/08/26 09:01:25;;;;;;;;;;;;;;;;;;5071960;28;19908;-76
2022/08/26 09:04:12;;;;;;;;;;;;;;;;;;5090944;28;19909;-78
2022/08/26 09:06:58;;;;;;;;;;;;;;;;;;5065692;28;19908;-78
2022/08/26 09:09:45;;;;;;;;;;;;;;;;;;5076778;28;19912;-78
2022/08/26 09:12:31;;;;;;;;;;;;;;;;;;5089481;28;20267;-78
2022/08/26 09:15:18;;;;;;;;;;;;;;;;;;5085073;28;19932;-83
2022/08/26 09:18:04;;;;;;;;;;;;;;;;;;5094224;28;20290;-79
2022/08/26 09:20:51;;;;;;;;;;;;;;;;;;5090679;28;19915;-79
2022/08/26 09:23:37;;;;;;;;;;;;;;;;;;5098666;28;19927;-77
2022/08/26 09:26:24;;;;;;;;;;;;;;;;;;5108974;27;19927;-80
2022/08/26 09:29:11;;;;;;;;;;;;;;;;;;5101862;27;19908;-79
2022/08/26 09:31:57;;;;;;;;;;;;;;;;;;5106338;27;20409;-81
2022/08/26 09:34:44;;;;;;;;;;;;;;;;;;5066701;28;19919;-79
2022/08/26 09:37:30;;;;;;;;;;;;;;;;;;5094338;28;19916;-80
2022/08/26 09:40:17;;;;;;;;;;;;;;;;;;5086532;28;19912;-80
2022/08/26 09:43:03;;;;;;;;;;;;;;;;;;5095415;28;19913;-80
2022/08/26 09:45:53;;;;;;;;;;;;;;;;;;5087126;28;19927;-80
2022/08/26 09:48:40;;;;;;;;;;;;;;;;;;5083717;28;19908;-79
2022/08/26 09:51:26;;;;;;;;;;;;;;;;;;5065959;28;19927;-81
2022/08/26 09:54:13;;;;;;;;;;;;;;;;;;5072626;28;19923;-79
2022/08/26 09:56:59;;;;;;;;;;;;;;;;;;5084523;28;19928;-80
2022/08/26 09:59:46;;;;;;;;;;;;;;;;;;5089135;28;19912;-81
2022/08/26 10:02:32;;;;;;;;;;;;;;;;;;5066920;28;19912;-81
2022/08/26 10:05:19;;;;;;;;;;;;;;;;;;5077908;28;19908;-79
2022/08/26 10:08:05;;;;;;;;;;;;;;;;;;5092512;28;19922;-79
2022/08/26 10:10:52;;;;;;;;;;;;;;;;;;5092033;27;19919;-79
2022/08/26 10:13:41;;;;;;;;;;;;;;;;;;5084621;28;20374;-79
2022/08/26 10:16:28;;;;;;;;;;;;;;;;;;5082724;28;19935;-80
2022/08/26 10:19:14;;;;;;;;;;;;;;;;;;5074148;28;20279;-80
2022/08/26 10:22:00;;;;;;;;;;;;;;;;;;5074793;28;19908;-79
2022/08/26 10:24:47;;;;;;;;;;;;;;;;;;5085388;28;19909;-79
2022/08/26 10:27:33;;;;;;;;;;;;;;;;;;5097570;28;19914;-79
2022/08/26 10:30:20;;;;;;;;;;;;;;;;;;5084175;28;19915;-80
2022/08/26 10:33:06;;;;;;;;;;;;;;;;;;5091080;28;20307;-79
2022/08/26 10:35:53;;;;;;;;;;;;;;;;;;5099354;28;19923;-80
2022/08/26 10:38:39;;;;;;;;;;;;;;;;;;5085115;28;20386;-81
2022/08/26 10:41:26;;;;;;;;;;;;;;;;;;5094734;28;19908;-79
2022/08/26 10:44:12;;;;;;;;;;;;;;;;;;5088415;28;20074;-78
2022/08/26 10:46:59;;;;;;;;;;;;;;;;;;5075785;28;20291;-79
2022/08/26 10:49:45;;;;;;;;;;;;;;;;;;5072490;28;19908;-80
2022/08/26 10:52:32;;;;;;;;;;;;;;;;;;5087127;28;19908;-79
2022/08/26 10:55:18;;;;;;;;;;;;;;;;;;5091371;28;19920;-79
2022/08/26 10:58:04;;;;;;;;;;;;;;;;;;5091908;28;19920;-80
2022/08/26 11:03:57;;;;;;;;;;;;;;;;;;5086641;28;19908;-80
2022/08/26 11:06:44;;;;;;;;;;;;;;;;;;5076046;28;19909;-80
2022/08/26 11:09:31;;;;;;;;;;;;;;;;;;5087785;28;20288;-79
2022/08/26 11:12:17;;;;;;;;;;;;;;;;;;5093320;28;19922;-79
2022/08/26 11:15:04;;;;;;;;;;;;;;;;;;5094172;28;19931;-79
2022/08/26 11:17:50;;;;;;;;;;;;;;;;;;5089438;28;19916;-79
2022/08/26 11:20:37;;;;;;;;;;;;;;;;;;5097179;28;19923;-79
2022/08/26 11:23:26;;;;;;;;;;;;;;;;;;5078660;28;19991;-80
2022/08/26 11:26:13;;;;;;;;;;;;;;;;;;5101433;28;19916;-79
2022/08/26 11:28:59;;;;;;;;;;;;;;;;;;5101274;27;20269;-79
2022/08/26 11:31:46;;;;;;;;;;;;;;;;;;5088636;28;19916;-80
2022/08/26 11:34:32;;;;;;;;;;;;;;;;;;5073587;28;19920;-81
2022/08/26 11:37:18;;;;;;;;;;;;;;;;;;5090337;28;20404;-80
2022/08/26 11:40:05;;;;;;;;;;;;;;;;;;5107481;27;19919;-80
2022/08/26 11:42:53;;;;;;;;;;;;;;;;;;5080211;28;19931;-80
2022/08/26 11:45:40;;;;;;;;;;;;;;;;;;5074765;28;19922;-79
2022/08/26 11:48:29;;;;;;;;;;;;;;;;;;5075051;28;19923;-81
2022/08/26 11:51:16;;;;;;;;;;;;;;;;;;5101160;28;19935;-81
2022/08/26 11:54:02;;;;;;;;;;;;;;;;;;5090932;28;19945;-79
2022/08/26 11:56:49;;;;;;;;;;;;;;;;;;5075058;28;20405;-81
2022/08/26 11:59:37;;;;;;;;;;;;;;;;;;5078110;28;19912;-80
2022/08/26 12:02:23;;;;;;;;;;;;;;;;;;5091023;28;20445;-80
2022/08/26 12:05:10;;;;;;;;;;;;;;;;;;5089602;28;19919;-78
2022/08/26 12:07:57;;;;;;;;;;;;;;;;;;5089914;28;19926;-79
2022/08/26 12:10:44;;;;;;;;;;;;;;;;;;5088889;28;19914;-79
2022/08/26 12:13:31;;;;;;;;;;;;;;;;;;5084433;28;19912;-79
2022/08/26 12:16:18;;;;;;;;;;;;;;;;;;5095330;27;19934;-80
2022/08/26 12:19:04;;;;;;;;;;;;;;;;;;5097969;28;19916;-78
2022/08/26 12:21:50;;;;;;;;;;;;;;;;;;5074731;28;19919;-79
2022/08/26 12:24:37;;;;;;;;;;;;;;;;;;5071197;28;19916;-80
2022/08/26 12:27:23;;;;;;;;;;;;;;;;;;5072763;28;19916;-77
2022/08/26 12:30:10;;;;;;;;;;;;;;;;;;5069605;28;19916;-78
2022/08/26 12:32:56;;;;;;;;;;;;;;;;;;5101611;27;19916;-79
2022/08/26 12:35:43;;;;;;;;;;;;;;;;;;5101648;28;19916;-80
2022/08/26 12:38:30;;;;;;;;;;;;;;;;;;5084429;28;20273;-79
2022/08/26 12:41:16;;;;;;;;;;;;;;;;;;5094900;27;19915;-79
2022/08/26 12:44:06;;;;;;;;;;;;;;;;;;5079436;28;19912;-79
2022/08/26 12:46:52;;;;;;;;;;;;;;;;;;5096499;27;19909;-79
2022/08/26 12:49:42;;;;;;;;;;;;;;;;;;5090685;28;19934;-78
2022/08/26 12:52:28;;;;;;;;;;;;;;;;;;5082383;28;19920;-79
2022/08/26 12:55:18;;;;;;;;;;;;;;;;;;5093449;28;19911;-78
2022/08/26 12:58:04;;;;;;;;;;;;;;;;;;5094768;28;19916;-78
2022/08/26 13:00:51;;;;;;;;;;;;;;;;;;5083523;28;20379;-80
2022/08/26 13:03:39;;;;;;;;;;;;;;;;;;5074099;28;19919;-77
2022/08/26 13:06:26;;;;;;;;;;;;;;;;;;5089878;28;19931;-78
2022/08/26 13:09:13;;;;;;;;;;;;;;;;;;5067550;28;19942;-80
2022/08/26 13:11:59;;;;;;;;;;;;;;;;;;5072622;28;20523;-78
2022/08/26 13:14:46;;;;;;;;;;;;;;;;;;5089690;28;19928;-78
2022/08/26 13:17:34;;;;;;;;;;;;;;;;;;5065337;28;19924;-79
2022/08/26 13:20:21;;;;;;;;;;;;;;;;;;5081622;28;19920;-77
2022/08/26 13:23:07;;;;;;;;;;;;;;;;;;5084957;28;19923;-78
2022/08/26 13:25:54;;;;;;;;;;;;;;;;;;5093940;28;19909;-80
2022/08/26 13:28:41;;;;;;;;;;;;;;;;;;5102117;28;19912;-79
2022/08/26 13:31:28;;;;;;;;;;;;;;;;;;5088602;28;20324;-80
2022/08/26 13:34:14;;;;;;;;;;;;;;;;;;5081693;28;19909;-80
2022/08/26 13:37:01;;;;;;;;;;;;;;;;;;5102151;27;19943;-80
2022/08/26 13:39:47;;;;;;;;;;;;;;;;;;5098796;27;20295;-81
2022/08/26 13:42:34;;;;;;;;;;;;;;;;;;5076335;28;19943;-79
2022/08/26 13:45:20;;;;;;;;;;;;;;;;;;5072741;28;19912;-81
2022/08/26 13:48:07;;;;;;;;;;;;;;;;;;5098253;27;19920;-81
2022/08/26 13:50:53;;;;;;;;;;;;;;;;;;5078738;28;19915;-78
2022/08/26 13:53:40;;;;;;;;;;;;;;;;;;5060715;28;19916;-79
2022/08/26 13:56:28;;;;;;;;;;;;;;;;;;5072789;28;19912;-79
2022/08/26 13:59:14;;;;;;;;;;;;;;;;;;5082159;28;19920;-79
2022/08/26 14:02:02;;;;;;;;;;;;;;;;;;5087345;28;19919;-79
2022/08/26 14:04:49;;;;;;;;;;;;;;;;;;5096261;27;19912;-78
2022/08/26 14:07:35;;;;;;;;;;;;;;;;;;5095877;28;20011;-78
2022/08/26 14:10:22;;;;;;;;;;;;;;;;;;5087133;28;19912;-78
2022/08/26 14:13:08;;;;;;;;;;;;;;;;;;5083266;28;20371;-78
2022/08/26 14:15:57;;;;;;;;;;;;;;;;;;5075503;28;19927;-79
2022/08/26 14:18:43;;;;;;;;;;;;;;;;;;5068006;28;19927;-79
2022/08/26 14:21:30;;;;;;;;;;;;;;;;;;5093944;28;19913;-78
2022/08/26 14:24:16;;;;;;;;;;;;;;;;;;5072299;28;19908;-79
2022/08/26 14:27:03;;;;;;;;;;;;;;;;;;5082546;28;19923;-80
2022/08/26 14:29:50;;;;;;;;;;;;;;;;;;5082581;28;19912;-79
2022/08/26 14:32:37;;;;;;;;;;;;;;;;;;5088231;28;19912;-79
2022/08/26 14:35:23;;;;;;;;;;;;;;;;;;5070872;28;19934;-78
2022/08/26 14:38:11;;;;;;;;;;;;;;;;;;5087422;28;19932;-79
2022/08/26 14:40:57;;;;;;;;;;;;;;;;;;5088040;28;20364;-79
2022/08/26 14:43:44;;;;;;;;;;;;;;;;;;5100156;28;19922;-78
2022/08/26 14:46:30;;;;;;;;;;;;;;;;;;5060904;28;19923;-77
2022/08/26 14:49:17;;;;;;;;;;;;;;;;;;5083154;28;19921;-78
2022/08/26 14:52:03;;;;;;;;;;;;;;;;;;5080861;28;19912;-79
2022/08/26 14:54:50;;;;;;;;;;;;;;;;;;5078647;28;19915;-80
2022/08/26 14:57:36;;;;;;;;;;;;;;;;;;5105822;28;19917;-79
2022/08/26 15:00:23;;;;;;;;;;;;;;;;;;5091978;28;19939;-79
2022/08/26 15:03:09;;;;;;;;;;;;;;;;;;5086798;28;19916;-79
2022/08/26 15:05:56;;;;;;;;;;;;;;;;;;5090331;28;19912;-79
2022/08/26 15:08:42;;;;;;;;;;;;;;;;;;5096105;28;19943;-79
2022/08/26 15:11:29;;;;;;;;;;;;;;;;;;5094939;28;19912;-79
2022/08/26 15:14:15;;;;;;;;;;;;;;;;;;5085851;28;19927;-80
2022/08/26 15:17:02;;;;;;;;;;;;;;;;;;5087515;28;19912;-79
2022/08/26 15:19:48;;;;;;;;;;;;;;;;;;5097113;28;20087;-79
2022/08/26 15:22:35;;;;;;;;;;;;;;;;;;5086510;28;19915;-80
2022/08/26 15:25:21;;;;;;;;;;;;;;;;;;5084506;28;20288;-78
2022/08/26 15:28:07;;;;;;;;;;;;;;;;;;5067341;28;19912;-79
2022/08/26 15:30:54;;;;;;;;;;;;;;;;;;5086274;28;20358;-79
2022/08/26 15:33:41;;;;;;;;;;;;;;;;;;5097842;28;19916;-79
2022/08/26 15:36:28;;;;;;;;;;;;;;;;;;5080847;28;19908;-79
2022/08/26 15:39:14;;;;;;;;;;;;;;;;;;5086841;28;20358;-79
2022/08/26 15:42:00;;;;;;;;;;;;;;;;;;5094198;28;19909;-79
2022/08/26 15:44:47;;;;;;;;;;;;;;;;;;5089344;28;20538;-79
2022/08/26 15:47:33;;;;;;;;;;;;;;;;;;5080411;28;19912;-79
2022/08/26 15:50:20;;;;;;;;;;;;;;;;;;5095434;28;19914;-79
2022/08/26 15:53:07;;;;;;;;;;;;;;;;;;5089915;28;19909;-79
2022/08/26 15:55:54;;;;;;;;;;;;;;;;;;5087052;28;20015;-79
2022/08/26 15:58:40;;;;;;;;;;;;;;;;;;5098454;28;19916;-79
2022/08/26 16:01:27;;;;;;;;;;;;;;;;;;5091970;28;20327;-79
2022/08/26 16:04:13;;;;;;;;;;;;;;;;;;5092093;28;19916;-79
2022/08/26 16:07:00;;;;;;;;;;;;;;;;;;5089771;28;19923;-79
2022/08/26 16:09:49;;;;;;;;;;;;;;;;;;5094689;28;20557;-79
2022/08/26 16:12:36;;;;;;;;;;;;;;;;;;5088597;28;19908;-79
2022/08/26 16:15:23;;;;;;;;;;;;;;;;;;5085415;28;19935;-79
2022/08/26 16:18:09;;;;;;;;;;;;;;;;;;5091377;28;19930;-78
2022/08/26 16:20:56;;;;;;;;;;;;;;;;;;5090091;28;19908;-79
2022/08/26 16:23:42;;;;;;;;;;;;;;;;;;5089650;28;19919;-78
2022/08/26 16:26:31;;;;;;;;;;;;;;;;;;5089031;28;19916;-78
2022/08/26 16:29:17;;;;;;;;;;;;;;;;;;5086721;28;19912;-79
2022/08/26 16:32:07;;;;;;;;;;;;;;;;;;5085650;28;19916;-79
2022/08/26 16:34:54;;;;;;;;;;;;;;;;;;5092286;28;19922;-78
2022/08/26 16:37:40;;;;;;;;;;;;;;;;;;5089924;28;19931;-78
2022/08/26 16:40:27;;;;;;;;;;;;;;;;;;5096165;28;20403;-79
2022/08/26 16:43:13;;;;;;;;;;;;;;;;;;5089233;28;19915;-79
2022/08/26 16:46:00;;;;;;;;;;;;;;;;;;5089561;28;19923;-79
2022/08/26 16:48:47;;;;;;;;;;;;;;;;;;5090333;28;19908;-79
2022/08/26 16:51:34;;;;;;;;;;;;;;;;;;5082188;28;19912;-79
2022/08/26 16:54:21;;;;;;;;;;;;;;;;;;5101883;28;19908;-78
2022/08/26 16:57:07;;;;;;;;;;;;;;;;;;5088696;28;19909;-79
2022/08/26 16:59:54;;;;;;;;;;;;;;;;;;5095485;28;19915;-79
2022/08/26 17:02:40;;;;;;;;;;;;;;;;;;5087646;28;20530;-78
2022/08/26 17:05:27;;;;;;;;;;;;;;;;;;5089177;28;19916;-78
2022/08/26 17:08:13;;;;;;;;;;;;;;;;;;5082920;28;20371;-79
2022/08/26 17:10:59;;;;;;;;;;;;;;;;;;5090798;28;19919;-79
2022/08/26 17:13:46;;;;;;;;;;;;;;;;;;5089152;28;19916;-78
2022/08/26 17:16:32;;;;;;;;;;;;;;;;;;5078656;28;19912;-79
2022/08/26 17:19:19;;;;;;;;;;;;;;;;;;5094755;28;19920;-79
2022/08/26 17:22:06;;;;;;;;;;;;;;;;;;5083205;28;19912;-78
2022/08/26 17:24:52;;;;;;;;;;;;;;;;;;5091825;28;19919;-78
2022/08/26 17:27:39;;;;;;;;;;;;;;;;;;5075366;28;20348;-79
2022/08/26 17:30:26;;;;;;;;;;;;;;;;;;5072139;28;19916;-79
2022/08/26 17:33:12;;;;;;;;;;;;;;;;;;5076259;28;19919;-78
2022/08/26 17:35:59;;;;;;;;;;;;;;;;;;5085882;28;19912;-78
2022/08/26 17:38:45;;;;;;;;;;;;;;;;;;5089284;28;19916;-79
2022/08/26 17:41:32;;;;;;;;;;;;;;;;;;5082728;28;19908;-79
2022/08/26 17:44:18;;;;;;;;;;;;;;;;;;5088653;28;19978;-79
2022/08/26 17:47:05;;;;;;;;;;;;;;;;;;5089707;28;20249;-78
2022/08/26 17:49:52;;;;;;;;;;;;;;;;;;5103581;28;19912;-79
2022/08/26 17:52:38;;;;;;;;;;;;;;;;;;5085533;28;19916;-78
2022/08/26 17:55:25;;;;;;;;;;;;;;;;;;5085743;28;19909;-79
2022/08/26 17:58:11;;;;;;;;;;;;;;;;;;5089316;28;19990;-79
2022/08/26 18:00:59;;;;;;;;;;;;;;;;;;5083249;28;19918;-78
2022/08/26 18:03:45;;;;;;;;;;;;;;;;;;5087943;28;20442;-79
2022/08/26 18:06:32;;;;;;;;;;;;;;;;;;5089207;28;19912;-79
2022/08/26 18:09:18;;;;;;;;;;;;;;;;;;5089443;28;19995;-79
2022/08/26 18:12:05;;;;;;;;;;;;;;;;;;5086954;28;19908;-79
2022/08/26 18:14:51;;;;;;;;;;;;;;;;;;5090153;28;19976;-79
2022/08/26 18:17:38;;;;;;;;;;;;;;;;;;5090298;28;19922;-78
2022/08/26 18:20:24;;;;;;;;;;;;;;;;;;5088811;28;19912;-78
2022/08/26 18:23:11;;;;;;;;;;;;;;;;;;5090033;28;19919;-78
2022/08/26 18:25:57;;;;;;;;;;;;;;;;;;5089073;28;20353;-78
2022/08/26 18:28:44;;;;;;;;;;;;;;;;;;5077979;28;19916;-79
2022/08/26 18:31:30;;;;;;;;;;;;;;;;;;5087617;28;19912;-78
2022/08/26 18:34:18;;;;;;;;;;;;;;;;;;5084063;28;19919;-79
2022/08/26 18:37:05;;;;;;;;;;;;;;;;;;5085112;28;19927;-78
2022/08/26 18:39:51;;;;;;;;;;;;;;;;;;5088228;28;19926;-79
2022/08/26 18:42:38;;;;;;;;;;;;;;;;;;5087843;28;20225;-79
2022/08/26 18:45:24;;;;;;;;;;;;;;;;;;5089328;28;19919;-76
2022/08/26 18:48:11;;;;;;;;;;;;;;;;;;5083999;28;20297;-78
2022/08/26 18:50:59;;;;;;;;;;;;;;;;;;5086763;28;19912;-81
2022/08/26 18:53:46;;;;;;;;;;;;;;;;;;5084731;28;19908;-78
2022/08/26 18:56:32;;;;;;;;;;;;;;;;;;5097098;28;20396;-80
2022/08/26 18:59:19;;;;;;;;;;;;;;;;;;5088064;28;19928;-79
2022/08/26 19:02:05;;;;;;;;;;;;;;;;;;5086934;28;20295;-79
2022/08/26 19:04:52;;;;;;;;;;;;;;;;;;5086343;28;19919;-80
2022/08/26 19:07:38;;;;;;;;;;;;;;;;;;5088208;28;19916;-81